createdAt,value
2023-05-02T00:02:08.779Z,8.07
2023-05-02T00:04:37.577Z,7.63
2023-05-02T00:07:06.897Z,9.00
2023-05-02T00:09:35.641Z,8.00
2023-05-02T00:12:05.871Z,6.53
2023-05-02T00:14:34.485Z,8.07
2023-05-02T00:17:03.202Z,7.10
2023-05-02T00:19:31.852Z,7.40
2023-05-02T00:22:00.783Z,6.50
2023-05-02T00:24:29.809Z,7.70
2023-05-02T00:26:58.435Z,6.67
2023-05-02T00:29:28.492Z,7.07
2023-05-02T00:31:57.989Z,6.43
2023-05-02T00:34:30.134Z,6.37
2023-05-02T00:36:58.753Z,6.20
2023-05-02T00:39:27.408Z,5.43
2023-05-02T00:41:58.944Z,6.50
2023-05-02T00:44:29.158Z,6.07
2023-05-02T00:46:57.911Z,6.17
2023-05-02T00:49:26.644Z,5.93
2023-05-02T00:51:55.621Z,6.27
2023-05-02T00:54:24.248Z,5.90
2023-05-02T00:56:52.903Z,6.60
2023-05-02T00:59:23.196Z,6.40
2023-05-02T01:01:58.606Z,5.50
2023-05-02T01:04:32.800Z,5.50
2023-05-02T01:07:09.449Z,5.90
2023-05-02T01:09:47.098Z,4.33
2023-05-02T01:12:20.670Z,5.93
2023-05-02T01:14:52.103Z,5.30
2023-05-02T01:17:22.485Z,4.77
2023-05-02T01:19:52.500Z,4.50
2023-05-02T01:22:21.145Z,5.83
2023-05-02T01:24:53.709Z,4.80
2023-05-02T01:27:29.250Z,5.40
2023-05-02T01:29:59.488Z,4.30
2023-05-02T01:32:28.298Z,4.73
2023-05-02T01:34:56.874Z,4.80
2023-05-02T01:37:26.128Z,4.37
2023-05-02T01:39:57.385Z,4.53
2023-05-02T01:42:26.153Z,4.97
2023-05-02T01:44:55.124Z,4.33
2023-05-02T01:47:25.422Z,4.47
2023-05-02T01:49:54.055Z,4.20
2023-05-02T01:52:22.808Z,4.93
2023-05-02T01:54:52.135Z,4.60
2023-05-02T01:57:20.797Z,3.87
2023-05-02T01:59:49.491Z,4.90
2023-05-02T02:02:18.218Z,4.87
2023-05-02T02:04:48.679Z,5.63
2023-05-02T02:07:17.429Z,4.13
2023-05-02T02:09:46.039Z,4.30
2023-05-02T02:12:17.089Z,4.63
2023-05-02T02:14:47.672Z,4.97
2023-05-02T02:17:18.470Z,4.60
2023-05-02T02:19:48.434Z,5.20
2023-05-02T02:22:16.966Z,4.93
2023-05-02T02:24:45.600Z,4.10
2023-05-02T02:27:14.219Z,4.97
2023-05-02T02:29:42.862Z,4.87
2023-05-02T02:32:11.456Z,4.60
2023-05-02T02:34:40.036Z,4.30
2023-05-02T02:37:12.944Z,4.83
2023-05-02T02:39:45.904Z,3.93
2023-05-02T02:42:17.243Z,4.27
2023-05-02T02:44:50.492Z,4.03
2023-05-02T02:47:23.193Z,5.17
2023-05-02T02:49:57.359Z,4.80
2023-05-02T02:52:32.441Z,4.33
2023-05-02T02:55:01.870Z,3.97
2023-05-02T02:57:34.287Z,4.03
2023-05-02T03:00:08.344Z,3.90
2023-05-02T03:02:37.058Z,4.43
2023-05-02T03:05:06.448Z,3.87
2023-05-02T03:07:37.884Z,4.67
2023-05-02T03:10:09.267Z,4.00
2023-05-02T03:12:39.815Z,4.63
2023-05-02T03:15:24.717Z,3.03
2023-05-02T03:17:53.382Z,4.17
2023-05-02T03:20:22.006Z,4.00
2023-05-02T03:22:52.311Z,3.70
2023-05-02T03:25:20.885Z,4.23
2023-05-02T03:27:49.513Z,3.87
2023-05-02T03:30:18.115Z,3.93
2023-05-02T03:32:46.720Z,3.70
2023-05-02T03:35:15.413Z,3.53
2023-05-02T03:37:46.126Z,4.30
2023-05-02T03:40:16.338Z,3.63
2023-05-02T03:42:44.979Z,4.13
2023-05-02T03:45:13.883Z,3.40
2023-05-02T03:47:44.050Z,3.90
2023-05-02T03:50:13.177Z,3.20
2023-05-02T03:52:41.794Z,3.60
2023-05-02T03:55:11.325Z,3.60
2023-05-02T03:57:41.361Z,3.83
2023-05-02T04:00:10.951Z,3.80
2023-05-02T04:02:39.718Z,3.53
2023-05-02T04:05:08.865Z,3.73
2023-05-02T04:07:37.483Z,3.33
2023-05-02T04:10:07.463Z,3.60
2023-05-02T04:12:36.168Z,3.50
2023-05-02T04:15:06.639Z,4.20
2023-05-02T04:17:35.273Z,3.03
2023-05-02T04:20:05.495Z,3.90
2023-05-02T04:22:34.458Z,3.83
2023-05-02T04:25:03.354Z,3.97
2023-05-02T04:27:31.934Z,3.93
2023-05-02T04:30:00.706Z,3.73
2023-05-02T04:32:30.884Z,4.23
2023-05-02T04:34:59.545Z,5.57
2023-05-02T04:37:28.276Z,4.40
2023-05-02T04:39:56.877Z,4.13
2023-05-02T04:42:25.654Z,4.80
2023-05-02T04:44:54.271Z,4.03
2023-05-02T04:47:22.928Z,4.60
2023-05-02T04:49:53.008Z,5.10
2023-05-02T04:52:21.571Z,4.40
2023-05-02T04:54:50.170Z,3.77
2023-05-02T04:57:19.246Z,4.83
2023-05-02T04:59:48.604Z,3.97
2023-05-02T05:02:17.380Z,4.57
2023-05-02T05:04:46.812Z,3.70
2023-05-02T05:07:16.814Z,4.00
2023-05-02T05:09:45.688Z,4.03
2023-05-02T05:12:14.368Z,4.30
2023-05-02T05:14:43.000Z,4.10
2023-05-02T05:17:11.668Z,3.53
2023-05-02T05:19:40.235Z,4.07
2023-05-02T05:22:08.818Z,4.23
2023-05-02T05:24:39.217Z,4.13
2023-05-02T05:27:07.958Z,4.20
2023-05-02T05:29:36.560Z,4.10
2023-05-02T05:32:05.965Z,4.30
2023-05-02T05:34:34.760Z,4.00
2023-05-02T05:37:03.384Z,4.70
2023-05-02T05:39:32.675Z,4.27
2023-05-02T05:42:02.671Z,4.13
2023-05-02T05:44:33.305Z,4.93
2023-05-02T05:47:01.957Z,5.03
2023-05-02T05:49:30.565Z,4.50
2023-05-02T05:51:59.193Z,4.77
2023-05-02T05:54:27.829Z,4.20
2023-05-02T05:56:56.499Z,4.90
2023-05-02T05:59:27.538Z,4.83
2023-05-02T06:01:59.537Z,4.80
2023-05-02T06:04:28.240Z,4.50
2023-05-02T06:06:56.981Z,5.73
2023-05-02T06:09:26.028Z,5.70
2023-05-02T06:11:54.692Z,4.30
2023-05-02T06:14:23.385Z,5.10
2023-05-02T06:16:53.355Z,4.80
2023-05-02T06:19:21.955Z,6.17
2023-05-02T06:21:50.606Z,5.50
2023-05-02T06:24:19.218Z,5.83
2023-05-02T06:26:47.842Z,5.10
2023-05-02T06:29:16.472Z,5.30
2023-05-02T06:31:45.247Z,5.33
2023-05-02T06:34:15.408Z,5.40
2023-05-02T06:36:44.137Z,5.60
2023-05-02T06:39:13.255Z,5.13
2023-05-02T06:41:41.854Z,6.70
2023-05-02T06:44:10.496Z,6.60
2023-05-02T06:46:39.177Z,5.60
2023-05-02T06:49:07.858Z,5.57
2023-05-02T06:51:37.894Z,6.60
2023-05-02T06:54:06.935Z,5.90
2023-05-02T06:56:38.346Z,4.97
2023-05-02T06:59:06.936Z,6.67
2023-05-02T07:01:35.974Z,6.73
2023-05-02T07:04:05.859Z,6.33
2023-05-02T07:06:34.606Z,6.30
2023-05-02T07:09:04.648Z,7.03
2023-05-02T07:11:33.275Z,6.30
2023-05-02T07:14:01.898Z,7.00
2023-05-02T07:16:32.784Z,7.83
2023-05-02T07:19:01.609Z,7.30
2023-05-02T07:21:30.320Z,9.40
2023-05-02T07:23:58.966Z,7.70
2023-05-02T07:26:29.298Z,7.10
2023-05-02T07:28:59.739Z,6.23
2023-05-02T07:31:30.290Z,7.40
2023-05-02T07:33:58.857Z,6.83
2023-05-02T07:36:29.548Z,6.70
2023-05-02T07:38:58.167Z,6.80
2023-05-02T07:41:28.177Z,7.13
2023-05-02T07:43:57.569Z,6.47
2023-05-02T07:46:26.319Z,6.67
2023-05-02T07:48:54.975Z,6.03
2023-05-02T07:51:23.648Z,6.37
2023-05-02T07:53:53.713Z,6.00
2023-05-02T07:56:22.424Z,6.70
2023-05-02T07:58:53.160Z,7.30
2023-05-02T08:01:21.866Z,6.40
2023-05-02T08:03:50.584Z,6.80
2023-05-02T08:06:19.496Z,7.00
2023-05-02T08:08:48.196Z,6.47
2023-05-02T08:11:16.847Z,6.33
2023-05-02T08:13:45.481Z,6.50
2023-05-02T08:16:15.485Z,6.03
2023-05-02T08:18:44.176Z,5.60
2023-05-02T08:21:12.812Z,6.23
2023-05-02T08:23:42.550Z,6.20
2023-05-02T08:26:13.192Z,6.17
2023-05-02T08:28:41.757Z,5.70
2023-05-02T08:31:10.931Z,6.50
2023-05-02T08:33:40.995Z,5.53
2023-05-02T08:36:13.226Z,5.30
2023-05-02T08:38:42.236Z,5.93
2023-05-02T08:41:14.578Z,5.57
2023-05-02T08:43:43.186Z,5.70
2023-05-02T08:46:12.391Z,4.90
2023-05-02T08:48:43.869Z,5.30
2023-05-02T08:51:13.343Z,5.57
2023-05-02T08:53:42.164Z,6.07
2023-05-02T08:56:11.403Z,4.83
2023-05-02T08:58:42.130Z,5.73
2023-05-02T09:01:13.194Z,5.43
2023-05-02T09:03:45.127Z,5.00
2023-05-02T09:06:14.527Z,5.27
2023-05-02T09:08:43.565Z,5.17
2023-05-02T09:11:12.692Z,4.47
2023-05-02T09:13:42.065Z,4.40
2023-05-02T09:16:11.970Z,6.20
2023-05-02T09:18:42.932Z,5.30
2023-05-02T09:21:12.979Z,5.30
2023-05-02T09:23:42.504Z,4.90
2023-05-02T09:26:15.324Z,4.73
2023-05-02T09:28:45.228Z,4.43
2023-05-02T09:31:18.761Z,4.40
2023-05-02T09:33:53.036Z,4.20
2023-05-02T09:36:22.346Z,4.33
2023-05-02T09:38:51.476Z,4.20
2023-05-02T09:41:22.175Z,3.13
2023-05-02T09:43:58.133Z,3.20
2023-05-02T09:46:26.791Z,3.43
2023-05-02T09:48:57.426Z,3.73
2023-05-02T09:51:26.495Z,3.27
2023-05-02T09:53:55.667Z,3.10
2023-05-02T09:56:26.025Z,2.93
2023-05-02T09:58:58.776Z,3.63
2023-05-02T10:01:27.468Z,3.13
2023-05-02T10:03:57.573Z,3.23
2023-05-02T10:06:28.320Z,2.93
2023-05-02T10:08:56.978Z,3.83
2023-05-02T10:11:25.961Z,3.20
2023-05-02T10:13:55.692Z,3.57
2023-05-02T10:16:27.601Z,3.00
2023-05-02T10:19:00.134Z,2.63
2023-05-02T10:21:29.219Z,2.90
2023-05-02T10:23:57.839Z,3.07
2023-05-02T10:26:27.925Z,2.80
2023-05-02T10:28:57.148Z,3.10
2023-05-02T10:31:25.877Z,3.50
2023-05-02T10:33:54.644Z,2.77
2023-05-02T10:36:24.746Z,2.93
2023-05-02T10:38:53.524Z,2.70
2023-05-02T10:41:23.977Z,3.10
2023-05-02T10:43:52.600Z,3.77
2023-05-02T10:46:32.039Z,3.20
2023-05-02T10:49:04.792Z,3.60
2023-05-02T10:51:34.902Z,3.13
2023-05-02T10:54:22.003Z,3.30
2023-05-02T10:57:07.709Z,3.07
2023-05-02T10:59:37.672Z,3.30
2023-05-02T11:02:07.297Z,4.27
2023-05-02T11:05:02.285Z,3.30
2023-05-02T11:07:32.737Z,3.33
2023-05-02T11:10:34.160Z,3.60
2023-05-02T11:13:04.855Z,3.83
2023-05-02T11:15:55.523Z,3.40
2023-05-02T11:18:24.224Z,3.23
2023-05-02T11:20:52.834Z,3.40
2023-05-02T11:23:25.942Z,2.63
2023-05-02T11:25:56.167Z,3.77
2023-05-02T11:28:45.121Z,3.30
2023-05-02T11:31:46.986Z,4.07
2023-05-02T11:34:15.585Z,4.53
2023-05-02T11:36:44.236Z,6.30
2023-05-02T11:39:22.926Z,8.20
2023-05-02T11:41:54.986Z,6.70
2023-05-02T11:44:23.642Z,5.60
2023-05-02T11:46:52.260Z,5.00
2023-05-02T11:49:20.869Z,5.70
2023-05-02T11:51:49.530Z,5.50
2023-05-02T11:54:22.878Z,6.47
2023-05-02T11:56:51.500Z,5.67
2023-05-02T11:59:20.104Z,5.93
2023-05-02T12:01:53.650Z,6.30
2023-05-02T12:04:24.081Z,4.20
2023-05-02T12:06:58.896Z,4.87
2023-05-02T12:09:28.913Z,4.70
2023-05-02T12:11:59.940Z,4.47
2023-05-02T12:14:29.451Z,3.53
2023-05-02T12:16:59.128Z,4.50
2023-05-02T12:19:28.028Z,4.53
2023-05-02T12:21:56.626Z,4.13
2023-05-02T12:24:25.282Z,3.90
2023-05-02T12:27:13.739Z,4.60
2023-05-02T12:29:43.381Z,4.20
2023-05-02T12:32:12.016Z,3.00
2023-05-02T12:34:41.693Z,3.40
2023-05-02T12:37:11.681Z,4.20
2023-05-02T12:39:40.820Z,4.23
2023-05-02T12:42:14.668Z,3.37
2023-05-02T12:44:44.060Z,2.83
2023-05-02T12:47:13.766Z,3.47
2023-05-02T12:49:51.709Z,2.93
2023-05-02T12:52:20.626Z,2.90
2023-05-02T12:54:49.424Z,3.20
2023-05-02T12:57:37.008Z,3.17
2023-05-02T13:00:06.664Z,4.20
2023-05-02T13:02:35.537Z,3.20
2023-05-02T13:05:04.228Z,3.93
2023-05-02T13:07:32.872Z,2.97
2023-05-02T13:10:01.812Z,3.40
2023-05-02T13:12:30.647Z,4.43
2023-05-02T13:15:00.668Z,2.80
2023-05-02T13:17:29.440Z,4.20
2023-05-02T13:20:01.865Z,3.23
2023-05-02T13:22:30.785Z,3.60
2023-05-02T13:24:59.366Z,3.10
2023-05-02T13:27:28.178Z,3.87
2023-05-02T13:29:56.950Z,3.00
2023-05-02T13:32:27.043Z,3.40
2023-05-02T13:34:55.825Z,3.40
2023-05-02T13:37:24.470Z,4.03
2023-05-02T13:39:53.130Z,3.20
2023-05-02T13:42:21.801Z,3.30
2023-05-02T13:44:50.566Z,2.93
2023-05-02T13:47:19.218Z,2.90
2023-05-02T13:49:49.243Z,2.63
2023-05-02T13:52:17.883Z,3.03
2023-05-02T13:54:46.507Z,2.70
2023-05-02T13:57:15.124Z,3.30
2023-05-02T13:59:43.725Z,2.27
2023-05-02T14:02:12.308Z,2.20
2023-05-02T14:04:40.941Z,2.60
2023-05-02T14:07:11.378Z,2.60
2023-05-02T14:09:39.947Z,3.27
2023-05-02T14:12:08.553Z,2.90
2023-05-02T14:14:38.214Z,2.50
2023-05-02T14:17:06.957Z,3.80
2023-05-02T14:19:35.810Z,3.50
2023-05-02T14:22:04.451Z,2.83
2023-05-02T14:24:34.486Z,3.00
2023-05-02T14:27:04.681Z,3.50
2023-05-02T14:29:33.357Z,3.20
2023-05-02T14:32:01.993Z,3.20
2023-05-02T14:34:30.695Z,3.87
2023-05-02T14:36:59.308Z,3.90
2023-05-02T14:39:27.972Z,4.37
2023-05-02T14:41:58.183Z,3.37
2023-05-02T14:44:26.824Z,3.30
2023-05-02T14:46:56.808Z,3.90
2023-05-02T14:49:25.662Z,3.60
2023-05-02T14:51:55.645Z,3.10
2023-05-02T14:54:28.517Z,3.73
2023-05-02T14:56:59.577Z,3.30
2023-05-02T14:59:30.482Z,3.50
2023-05-02T15:01:59.082Z,3.80
2023-05-02T15:04:28.327Z,3.03
2023-05-02T15:06:58.432Z,4.30
2023-05-02T15:09:27.594Z,3.37
2023-05-02T15:11:57.633Z,3.50
2023-05-02T15:14:26.276Z,3.90
2023-05-02T15:16:54.975Z,3.33
2023-05-02T15:19:25.065Z,3.10
2023-05-02T15:21:57.195Z,2.90
2023-05-02T15:24:25.835Z,3.80
2023-05-02T15:26:54.420Z,3.17
2023-05-02T15:29:24.372Z,3.50
2023-05-02T15:31:54.617Z,3.30
2023-05-02T15:34:23.253Z,3.47
2023-05-02T15:36:52.374Z,2.90
2023-05-02T15:39:22.657Z,2.73
2023-05-02T15:41:52.680Z,3.57
2023-05-02T15:44:21.283Z,3.43
2023-05-02T15:46:51.240Z,3.00
2023-05-02T15:49:19.964Z,3.03
2023-05-02T15:51:48.554Z,2.40
2023-05-02T15:54:17.186Z,3.40
2023-05-02T15:56:46.545Z,3.00
2023-05-02T15:59:15.165Z,3.10
2023-05-02T16:01:43.813Z,2.10
2023-05-02T16:04:14.466Z,3.70
2023-05-02T16:06:43.183Z,2.87
2023-05-02T16:09:12.820Z,3.60
2023-05-02T16:11:41.470Z,3.20
2023-05-02T16:14:10.070Z,2.33
2023-05-02T16:16:38.787Z,2.60
2023-05-02T16:19:13.399Z,2.50
2023-05-02T16:21:43.979Z,2.97
2023-05-02T16:24:12.659Z,3.00
2023-05-02T16:26:41.647Z,2.93
2023-05-02T16:29:10.561Z,5.10
2023-05-02T16:31:39.200Z,5.57
2023-05-02T16:34:09.194Z,4.43
2023-05-02T16:36:37.825Z,4.20
2023-05-02T16:39:07.915Z,4.70
2023-05-02T16:41:37.813Z,2.40
2023-05-02T16:44:06.589Z,3.70
2023-05-02T16:46:35.289Z,4.13
2023-05-02T16:49:03.963Z,3.10
2023-05-02T16:51:32.586Z,3.67
2023-05-02T16:54:01.245Z,3.30
2023-05-02T16:56:31.220Z,2.40
2023-05-02T16:58:59.864Z,3.60
2023-05-02T17:01:28.610Z,2.70
2023-05-02T17:03:57.326Z,3.43
2023-05-02T17:06:26.281Z,2.80
2023-05-02T17:08:55.097Z,2.87
2023-05-02T17:11:25.339Z,5.40
2023-05-02T17:13:55.291Z,2.80
2023-05-02T17:16:23.945Z,3.10
2023-05-02T17:18:53.611Z,3.27
2023-05-02T17:21:22.183Z,3.63
2023-05-02T17:23:50.718Z,2.53
2023-05-02T17:26:19.351Z,3.10
2023-05-02T17:28:50.321Z,3.23
2023-05-02T17:31:20.430Z,2.33
2023-05-02T17:33:49.051Z,3.40
2023-05-02T17:36:17.762Z,3.33
2023-05-02T17:38:46.329Z,2.60
2023-05-02T17:41:15.408Z,2.93
2023-05-02T17:43:45.177Z,3.33
2023-05-02T17:46:15.927Z,2.60
2023-05-02T17:48:46.330Z,2.07
2023-05-02T17:51:14.960Z,2.77
2023-05-02T17:53:44.034Z,2.77
2023-05-02T17:56:12.958Z,3.40
2023-05-02T17:58:41.633Z,2.40
2023-05-02T18:01:10.577Z,3.37
2023-05-02T18:03:39.395Z,2.97
2023-05-02T18:06:09.777Z,2.60
2023-05-02T18:08:39.974Z,2.43
2023-05-02T18:11:14.521Z,2.50
2023-05-02T18:13:43.124Z,3.17
2023-05-02T18:16:11.759Z,2.27
2023-05-02T18:18:41.535Z,2.30
2023-05-02T18:21:11.742Z,2.83
2023-05-02T18:23:41.158Z,2.67
2023-05-02T18:26:14.101Z,2.77
2023-05-02T18:28:44.510Z,4.10
2023-05-02T18:31:22.652Z,2.63
2023-05-02T18:33:51.564Z,2.83
2023-05-02T18:36:25.020Z,2.80
2023-05-02T18:38:53.700Z,2.80
2023-05-02T18:41:22.440Z,2.53
2023-05-02T18:43:53.053Z,2.70
2023-05-02T18:46:21.700Z,2.60
2023-05-02T18:48:50.342Z,2.60
2023-05-02T18:51:20.308Z,2.20
2023-05-02T18:53:49.674Z,2.90
2023-05-02T18:56:18.260Z,3.30
2023-05-02T18:58:47.129Z,2.20
2023-05-02T19:01:16.005Z,2.87
2023-05-02T19:03:45.064Z,2.90
2023-05-02T19:06:13.984Z,2.73
2023-05-02T19:08:45.791Z,2.13
2023-05-02T19:11:14.376Z,2.90
2023-05-02T19:13:43.013Z,3.10
2023-05-02T19:16:12.687Z,2.00
2023-05-02T19:18:41.459Z,2.30
2023-05-02T19:21:12.648Z,2.10
2023-05-02T19:23:43.181Z,1.80
2023-05-02T19:26:12.802Z,1.83
2023-05-02T19:28:41.456Z,1.90
2023-05-02T19:31:11.507Z,2.23
2023-05-02T19:33:40.464Z,2.60
2023-05-02T19:36:09.229Z,1.73
2023-05-02T19:38:37.804Z,1.73
2023-05-02T19:41:07.852Z,1.67
2023-05-02T19:43:36.452Z,2.00
2023-05-02T19:46:06.017Z,1.87
2023-05-02T19:48:34.704Z,1.90
2023-05-02T19:51:04.488Z,2.10
2023-05-02T19:53:33.258Z,2.13
2023-05-02T19:56:02.202Z,1.97
2023-05-02T19:58:32.283Z,2.03
2023-05-02T20:01:00.960Z,2.00
2023-05-02T20:03:29.688Z,2.10
2023-05-02T20:05:59.408Z,1.93
2023-05-02T20:08:28.907Z,2.13
2023-05-02T20:10:57.532Z,1.97
2023-05-02T20:13:26.263Z,2.37
2023-05-02T20:15:56.225Z,1.73
2023-05-02T20:18:24.791Z,1.77
2023-05-02T20:20:53.421Z,1.70
2023-05-02T20:23:21.967Z,1.90
2023-05-02T20:25:50.598Z,2.17
2023-05-02T20:28:19.210Z,1.63
2023-05-02T20:30:47.778Z,2.13
2023-05-02T20:33:18.348Z,2.10
2023-05-02T20:35:47.057Z,1.77
2023-05-02T20:38:17.771Z,2.90
2023-05-02T20:40:46.396Z,1.50
2023-05-02T20:43:18.057Z,1.67
2023-05-02T20:45:47.039Z,1.90
2023-05-02T20:48:18.569Z,2.20
2023-05-02T20:50:54.415Z,1.90
2023-05-02T20:53:24.024Z,1.70
2023-05-02T20:55:53.252Z,1.60
2023-05-02T20:58:21.854Z,1.90
2023-05-02T21:00:52.631Z,2.00
2023-05-02T21:03:22.938Z,1.77
2023-05-02T21:05:54.743Z,2.83
2023-05-02T21:08:23.621Z,1.90
2023-05-02T21:10:52.333Z,2.03
2023-05-02T21:13:21.866Z,2.30
2023-05-02T21:15:52.760Z,1.90
2023-05-02T21:18:23.291Z,1.70
2023-05-02T21:20:51.877Z,1.73
2023-05-02T21:23:20.562Z,1.70
2023-05-02T21:25:49.162Z,1.80
2023-05-02T21:28:17.788Z,1.80
2023-05-02T21:30:46.364Z,1.60
2023-05-02T21:33:17.502Z,2.40
2023-05-02T21:35:47.535Z,2.33
2023-05-02T21:38:17.211Z,1.80
2023-05-02T21:40:45.836Z,1.93
2023-05-02T21:43:15.281Z,1.63
2023-05-02T21:45:46.974Z,2.20
2023-05-02T21:48:15.680Z,1.90
2023-05-02T21:50:46.295Z,2.03
2023-05-02T21:53:14.895Z,2.17
2023-05-02T21:55:43.481Z,1.90
2023-05-02T21:58:12.254Z,1.67
2023-05-02T22:00:41.438Z,2.23
2023-05-02T22:03:11.852Z,2.00
2023-05-02T22:05:41.271Z,2.20
2023-05-02T22:08:12.133Z,3.20
2023-05-02T22:10:41.857Z,1.93
2023-05-02T22:13:12.268Z,1.80
2023-05-02T22:15:45.336Z,2.10
2023-05-02T22:18:14.205Z,2.57
2023-05-02T22:20:43.151Z,2.20
2023-05-02T22:23:13.462Z,2.00
2023-05-02T22:25:42.725Z,2.13
2023-05-02T22:28:12.600Z,1.87
2023-05-02T22:30:42.885Z,2.60
2023-05-02T22:33:12.087Z,1.70
2023-05-02T22:35:40.801Z,1.70
2023-05-02T22:38:09.964Z,2.17
2023-05-02T22:40:39.980Z,1.60
2023-05-02T22:43:08.629Z,1.73
2023-05-02T22:45:38.426Z,1.87
2023-05-02T22:48:07.922Z,1.87
2023-05-02T22:50:36.597Z,1.83
2023-05-02T22:53:05.216Z,2.20
2023-05-02T22:55:33.869Z,1.37
2023-05-02T22:58:04.019Z,1.77
2023-05-02T23:00:32.747Z,2.27
2023-05-02T23:03:02.464Z,1.77
2023-05-02T23:05:31.117Z,2.40
2023-05-02T23:07:59.698Z,1.90
2023-05-02T23:10:28.313Z,1.93
2023-05-02T23:12:57.128Z,1.80
2023-05-02T23:15:27.341Z,3.13
2023-05-02T23:17:56.031Z,1.97
2023-05-02T23:20:24.688Z,1.83
2023-05-02T23:22:53.262Z,1.80
2023-05-02T23:25:21.828Z,1.90
2023-05-02T23:27:50.448Z,1.70
2023-05-02T23:30:19.208Z,1.80
2023-05-02T23:32:49.224Z,1.70
2023-05-02T23:35:18.092Z,1.90
2023-05-02T23:37:46.921Z,2.40
2023-05-02T23:40:15.700Z,1.80
2023-05-02T23:42:44.838Z,1.80
2023-05-02T23:45:14.220Z,2.00
2023-05-02T23:47:42.955Z,2.20
2023-05-02T23:50:13.438Z,2.10
2023-05-02T23:52:42.386Z,2.07
2023-05-02T23:55:11.347Z,2.00
2023-05-02T23:57:40.223Z,1.70
